Time;durP1;ratioP1;P1;durP2;ratioP2;P2;SDS_P1;SDS_P2;PMS_P1;PMS_P2;Temp;Humidity;BMP_temperature;BMP_pressure;BME280_temperature;BME280_humidity;BME280_pressure;Samples;Min_cycle;Max_cycle;Signal;HPM_P1;HPM_P2
2021/10/26 00:01:54;;;;;;;34.30;20.43;;;;;;;-138.14;100.00;63448.66;4957839;28;20651;-71
2021/10/26 00:04:20;;;;;;;32.63;19.97;;;;;;;-138.14;100.00;63448.66;4958477;28;20268;-71
2021/10/26 00:06:46;;;;;;;36.83;20.03;;;;;;;-138.14;100.00;63448.66;4969614;28;20601;-72
2021/10/26 00:09:11;;;;;;;36.57;20.23;;;;;;;-138.14;100.00;63448.66;4943368;28;20185;-71
2021/10/26 00:11:39;;;;;;;33.17;20.67;;;;;;;-138.14;100.00;63448.66;4960374;28;20261;-72
2021/10/26 00:14:05;;;;;;;35.43;21.23;;;;;;;-138.14;100.00;63448.66;4961522;28;20683;-71
2021/10/26 00:16:33;;;;;;;39.90;22.97;;;;;;;-138.14;100.00;63448.66;4941741;28;20230;-69
2021/10/26 00:19:00;;;;;;;36.57;21.13;;;;;;;-138.14;100.00;63448.66;4958972;28;20214;-71
2021/10/26 00:21:28;;;;;;;41.47;23.27;;;;;;;-138.14;100.00;63448.66;4975657;28;20229;-71
2021/10/26 00:23:53;;;;;;;36.83;22.13;;;;;;;-138.14;100.00;63448.66;4926781;28;20194;-71
2021/10/26 00:26:26;;;;;;;42.03;23.93;;;;;;;-138.14;100.00;63448.66;4957643;28;20218;-71
2021/10/26 00:28:54;;;;;;;42.63;23.60;;;;;;;-138.14;100.00;63448.66;4973729;28;20190;-71
2021/10/26 00:31:19;;;;;;;45.30;24.83;;;;;;;-138.14;100.00;63448.66;4961690;28;20248;-70
2021/10/26 00:33:45;;;;;;;43.60;23.77;;;;;;;-138.14;100.00;63448.66;4977628;28;20178;-70
2021/10/26 00:36:13;;;;;;;50.30;25.33;;;;;;;-138.14;100.00;63448.66;4990450;28;20226;-71
2021/10/26 00:38:38;;;;;;;49.00;27.07;;;;;;;-138.14;100.00;63448.66;4936989;29;20202;-70
2021/10/26 00:41:06;;;;;;;50.77;26.47;;;;;;;-138.14;100.00;63448.66;4938764;28;20757;-70
2021/10/26 00:43:32;;;;;;;45.47;25.50;;;;;;;-138.14;100.00;63448.66;4951512;28;20193;-71
2021/10/26 00:46:00;;;;;;;47.60;27.00;;;;;;;-138.14;100.00;63448.66;4941705;28;20218;-71
2021/10/26 00:48:31;;;;;;;48.60;27.50;;;;;;;-138.14;100.00;63448.66;4943975;28;20195;-70
2021/10/26 00:50:57;;;;;;;53.27;28.67;;;;;;;-138.14;100.00;63448.66;4973741;28;20225;-71
2021/10/26 00:53:25;;;;;;;57.00;28.27;;;;;;;-138.14;100.00;63448.66;4943659;28;20657;-70
2021/10/26 00:55:50;;;;;;;56.87;29.30;;;;;;;-138.14;100.00;63448.66;4963504;28;20213;-71
2021/10/26 00:58:17;;;;;;;57.67;29.23;;;;;;;-138.14;100.00;63448.66;4973387;28;20635;-72
2021/10/26 01:00:43;;;;;;;59.60;30.07;;;;;;;-138.14;100.00;63448.66;4982805;28;20221;-71
2021/10/26 01:03:10;;;;;;;59.40;30.70;;;;;;;-138.14;100.00;63448.66;4982483;28;20178;-71
2021/10/26 01:05:38;;;;;;;64.37;30.87;;;;;;;-138.14;100.00;63448.66;4980040;28;20217;-70
2021/10/26 01:08:04;;;;;;;60.33;30.80;;;;;;;-138.14;100.00;63448.66;4964845;28;20197;-71
2021/10/26 01:10:35;;;;;;;64.03;32.07;;;;;;;-138.14;100.00;63448.66;4944274;28;20278;-70
2021/10/26 01:13:04;;;;;;;67.03;32.60;;;;;;;-138.14;100.00;63448.66;4949022;28;20178;-70
2021/10/26 01:15:32;;;;;;;61.50;31.47;;;;;;;-138.14;100.00;63448.66;4931058;28;20226;-70
2021/10/26 01:18:11;;;;;;;63.37;33.17;;;;;;;-138.14;100.00;63448.66;4946087;28;20264;-71
2021/10/26 01:20:36;;;;;;;69.90;33.90;;;;;;;-138.14;100.00;63448.66;4979882;28;20334;-70
2021/10/26 01:23:02;;;;;;;68.80;34.57;;;;;;;-138.14;100.00;63448.66;4960018;28;20210;-71
2021/10/26 01:25:35;;;;;;;69.73;34.40;;;;;;;-138.14;100.00;63448.66;4956346;28;20232;-72
2021/10/26 01:28:00;;;;;;;68.40;34.83;;;;;;;-138.14;100.00;63448.66;4955882;28;20192;-69
2021/10/26 01:30:28;;;;;;;73.43;35.50;;;;;;;-138.14;100.00;63448.66;4963164;28;20225;-70
2021/10/26 01:33:07;;;;;;;70.67;35.57;;;;;;;-138.14;100.00;63448.66;4997745;28;20186;-71
2021/10/26 01:35:43;;;;;;;74.57;34.90;;;;;;;-138.14;100.00;63448.66;4980456;28;20221;-70
2021/10/26 01:38:09;;;;;;;73.57;36.13;;;;;;;-138.14;100.00;63448.66;4939413;28;20222;-70
2021/10/26 01:40:40;;;;;;;81.13;36.00;;;;;;;-138.14;100.00;63448.66;4930351;28;20225;-70
2021/10/26 01:43:07;;;;;;;70.43;36.37;;;;;;;-138.14;100.00;63448.66;4965299;28;20278;-70
2021/10/26 01:45:35;;;;;;;76.93;37.30;;;;;;;-138.14;100.00;63448.66;4956853;28;20663;-70
2021/10/26 01:48:19;;;;;;;79.80;38.23;;;;;;;-138.14;100.00;63448.66;4959264;28;20682;-70
2021/10/26 01:50:44;;;;;;;79.90;37.47;;;;;;;-138.14;100.00;63448.66;4972927;28;20221;-70
2021/10/26 01:53:13;;;;;;;79.40;37.37;;;;;;;-138.14;100.00;63448.66;4973389;28;20187;-70
2021/10/26 01:55:39;;;;;;;78.43;37.27;;;;;;;-138.14;100.00;63448.66;4968118;28;20213;-70
2021/10/26 01:58:09;;;;;;;77.50;37.90;;;;;;;-138.14;100.00;63448.66;4951935;28;20222;-70
2021/10/26 02:00:55;;;;;;;77.43;36.90;;;;;;;-138.14;100.00;63448.66;4991662;28;20630;-70
2021/10/26 02:03:21;;;;;;;77.37;38.07;;;;;;;-138.14;100.00;63448.66;4976431;28;20264;-70
2021/10/26 02:05:50;;;;;;;86.70;39.13;;;;;;;-138.14;100.00;63448.66;4959594;28;20746;-70
2021/10/26 02:08:18;;;;;;;93.07;40.23;;;;;;;-138.14;100.00;63448.66;4956582;28;20678;-71
2021/10/26 02:10:45;;;;;;;85.23;39.63;;;;;;;-138.14;100.00;63448.66;4959219;28;20218;-70
2021/10/26 02:13:13;;;;;;;96.83;41.50;;;;;;;-138.14;100.00;63448.66;4948570;28;20569;-71
2021/10/26 02:15:39;;;;;;;90.57;40.83;;;;;;;-138.14;100.00;63448.66;4942958;28;20226;-69
2021/10/26 02:18:05;;;;;;;87.90;41.27;;;;;;;-138.14;100.00;63448.66;4940649;28;20245;-70
2021/10/26 02:20:31;;;;;;;88.80;40.90;;;;;;;-138.14;100.00;63448.66;4956277;28;20348;-69
2021/10/26 02:22:58;;;;;;;82.67;40.63;;;;;;;-138.14;100.00;63448.66;4940683;28;20285;-71
2021/10/26 02:25:27;;;;;;;94.03;42.13;;;;;;;-138.14;100.00;63448.66;4966331;28;20682;-70
2021/10/26 02:27:55;;;;;;;92.73;41.70;;;;;;;-138.14;100.00;63448.66;4967510;28;20259;-70
2021/10/26 02:30:25;;;;;;;93.87;43.00;;;;;;;-138.14;100.00;63448.66;4959347;28;20280;-70
2021/10/26 02:32:54;;;;;;;92.53;41.67;;;;;;;-138.14;100.00;63448.66;4960394;28;20678;-70
2021/10/26 02:35:20;;;;;;;95.50;42.20;;;;;;;-138.14;100.00;63448.66;4974552;28;20202;-70
2021/10/26 02:37:48;;;;;;;90.07;43.83;;;;;;;-138.14;100.00;63448.66;4959763;28;21062;-70
2021/10/26 02:40:19;;;;;;;89.07;42.60;;;;;;;-138.14;100.00;63448.66;4939523;28;20190;-70
2021/10/26 02:42:45;;;;;;;89.50;42.83;;;;;;;-138.14;100.00;63448.66;4948326;28;20217;-71
2021/10/26 02:45:15;;;;;;;88.97;43.33;;;;;;;-138.14;100.00;63448.66;4971314;28;20656;-70
2021/10/26 02:47:43;;;;;;;83.47;40.73;;;;;;;-138.14;100.00;63448.66;4956596;28;20787;-70
2021/10/26 02:50:11;;;;;;;97.20;44.50;;;;;;;-138.14;100.00;63448.66;4971934;28;20181;-70
2021/10/26 02:52:38;;;;;;;86.97;41.60;;;;;;;-138.14;100.00;63448.66;4972020;28;20273;-70
2021/10/26 02:55:07;;;;;;;83.70;41.33;;;;;;;-138.14;100.00;63448.66;4967054;28;20194;-70
2021/10/26 02:57:34;;;;;;;84.67;41.40;;;;;;;-138.14;100.00;63448.66;4966864;28;20560;-70
2021/10/26 02:59:59;;;;;;;90.73;43.07;;;;;;;-138.14;100.00;63448.66;4959336;28;20188;-70
2021/10/26 03:02:25;;;;;;;79.53;40.83;;;;;;;-138.14;100.00;63448.66;4958832;28;20228;-70
2021/10/26 03:04:51;;;;;;;79.83;40.77;;;;;;;-138.14;100.00;63448.66;4962588;28;20205;-70
2021/10/26 03:07:17;;;;;;;87.90;42.27;;;;;;;-138.14;100.00;63448.66;4955059;28;21482;-70
2021/10/26 03:09:46;;;;;;;81.80;40.37;;;;;;;-138.14;100.00;63448.66;5030589;23;20308;-69
2021/10/26 03:12:12;;;;;;;83.67;39.03;;;;;;;-138.14;100.00;63448.66;4966359;28;20313;-71
2021/10/26 03:14:39;;;;;;;79.13;38.77;;;;;;;-138.14;100.00;63448.66;4975290;28;20181;-70
2021/10/26 03:17:07;;;;;;;79.97;39.40;;;;;;;-138.14;100.00;63448.66;4991295;28;20221;-70
2021/10/26 03:19:40;;;;;;;74.97;37.47;;;;;;;-138.14;100.00;63448.66;4959697;28;20214;-70
2021/10/26 03:22:08;;;;;;;80.63;39.73;;;;;;;-138.14;100.00;63448.66;5001475;28;20800;-71
2021/10/26 03:24:38;;;;;;;77.00;37.53;;;;;;;-138.14;100.00;63448.66;4960296;28;20205;-70
2021/10/26 03:27:06;;;;;;;78.77;39.07;;;;;;;-138.14;100.00;63448.66;4956861;28;20603;-70
2021/10/26 03:29:34;;;;;;;80.93;38.37;;;;;;;-138.14;100.00;63448.66;4947909;28;20200;-70
2021/10/26 03:32:01;;;;;;;81.40;38.90;;;;;;;-138.14;100.00;63448.66;4985483;28;20310;-70
2021/10/26 03:34:32;;;;;;;79.87;38.07;;;;;;;-138.14;100.00;63448.66;4993801;28;20275;-70
2021/10/26 03:37:04;;;;;;;75.73;37.17;;;;;;;-138.14;100.00;63448.66;4984436;28;20323;-70
2021/10/26 03:39:30;;;;;;;83.40;37.93;;;;;;;-138.14;100.00;63448.66;4969491;28;20209;-70
2021/10/26 03:41:57;;;;;;;78.80;39.53;;;;;;;-138.14;100.00;63448.66;4968414;28;20220;-70
2021/10/26 03:44:24;;;;;;;84.80;39.40;;;;;;;-138.14;100.00;63448.66;4966175;28;20709;-72
2021/10/26 03:46:50;;;;;;;78.03;37.93;;;;;;;-138.14;100.00;63448.66;4990810;28;20272;-71
2021/10/26 03:49:20;;;;;;;76.00;37.30;;;;;;;-138.14;100.00;63448.66;4974563;28;20231;-70
2021/10/26 03:51:48;;;;;;;79.47;38.67;;;;;;;-138.14;100.00;63448.66;4974393;28;20225;-70
2021/10/26 03:54:14;;;;;;;83.87;39.67;;;;;;;-138.14;100.00;63448.66;4957973;28;20177;-69
2021/10/26 03:56:43;;;;;;;83.40;41.60;;;;;;;-138.14;100.00;63448.66;4981630;28;20228;-70
2021/10/26 03:59:10;;;;;;;86.80;40.97;;;;;;;-138.14;100.00;63448.66;4983423;28;20221;-70
2021/10/26 04:01:38;;;;;;;84.60;41.00;;;;;;;-138.14;100.00;63448.66;4947239;28;20726;-70
2021/10/26 04:04:05;;;;;;;84.03;40.10;;;;;;;-138.14;100.00;63448.66;5001763;28;20561;-71
2021/10/26 04:06:33;;;;;;;83.23;40.30;;;;;;;-138.14;100.00;63448.66;4946242;28;20236;-70
2021/10/26 04:09:05;;;;;;;86.77;41.50;;;;;;;-138.14;100.00;63448.66;4978687;28;20570;-70
2021/10/26 04:11:39;;;;;;;82.30;40.47;;;;;;;-138.14;100.00;63448.66;4931164;28;20241;-70
2021/10/26 04:14:05;;;;;;;96.80;42.33;;;;;;;-138.14;100.00;63448.66;4946114;28;20182;-70
2021/10/26 04:16:33;;;;;;;86.17;41.00;;;;;;;-138.14;100.00;63448.66;4983887;28;20217;-70
2021/10/26 04:18:59;;;;;;;89.83;41.57;;;;;;;-138.14;100.00;63448.66;4975806;28;20217;-70
2021/10/26 04:21:27;;;;;;;83.87;40.20;;;;;;;-138.14;100.00;63448.66;4974542;28;20216;-72
2021/10/26 04:23:56;;;;;;;85.83;41.10;;;;;;;-138.14;100.00;63448.66;4959286;28;20169;-70
2021/10/26 04:26:22;;;;;;;84.13;41.40;;;;;;;-138.14;100.00;63448.66;4963048;28;20224;-70
2021/10/26 04:28:48;;;;;;;86.20;40.70;;;;;;;-138.14;100.00;63448.66;4987222;28;20188;-70
2021/10/26 04:31:20;;;;;;;87.10;42.03;;;;;;;-138.14;100.00;63448.66;4959741;28;20224;-71
2021/10/26 04:33:50;;;;;;;78.07;39.43;;;;;;;-138.14;100.00;63448.66;4977799;28;20188;-70
2021/10/26 04:36:16;;;;;;;87.00;41.63;;;;;;;-138.14;100.00;63448.66;4972816;28;20229;-69
2021/10/26 04:38:48;;;;;;;79.30;39.83;;;;;;;-138.14;100.00;63448.66;4973111;28;20194;-71
2021/10/26 04:41:13;;;;;;;81.27;40.50;;;;;;;-138.14;100.00;63448.66;4964138;28;20228;-70
2021/10/26 04:43:41;;;;;;;80.20;40.10;;;;;;;-138.14;100.00;63448.66;4984324;28;20190;-69
2021/10/26 04:46:12;;;;;;;79.30;39.37;;;;;;;-138.14;100.00;63448.66;4973652;28;20276;-70
2021/10/26 04:48:37;;;;;;;73.90;39.20;;;;;;;-138.14;100.00;63448.66;4974024;28;20267;-70
2021/10/26 04:51:04;;;;;;;79.77;40.10;;;;;;;-138.14;100.00;63448.66;4958257;28;20391;-71
2021/10/26 04:53:32;;;;;;;76.37;37.87;;;;;;;-138.14;100.00;63448.66;4977748;28;20212;-70
2021/10/26 04:56:00;;;;;;;70.43;38.33;;;;;;;-138.14;100.00;63448.66;4957311;28;20280;-71
2021/10/26 04:58:32;;;;;;;76.13;38.90;;;;;;;-138.14;100.00;63448.66;4974688;28;20208;-70
2021/10/26 05:00:58;;;;;;;70.10;38.30;;;;;;;-138.14;100.00;63448.66;4979954;28;20303;-71
2021/10/26 05:03:28;;;;;;;72.10;36.80;;;;;;;-138.14;100.00;63448.66;4983856;28;20186;-71
2021/10/26 05:05:57;;;;;;;65.20;36.97;;;;;;;-138.14;100.00;63448.66;4976296;28;20221;-71
2021/10/26 05:08:26;;;;;;;70.73;36.97;;;;;;;-138.14;100.00;63448.66;4993200;28;20178;-71
2021/10/26 05:10:52;;;;;;;71.13;37.80;;;;;;;-138.14;100.00;63448.66;4964534;28;20579;-71
2021/10/26 05:13:19;;;;;;;64.53;35.80;;;;;;;-138.14;100.00;63448.66;4994574;28;20623;-71
2021/10/26 05:16:06;;;;;;;64.80;35.67;;;;;;;-138.14;100.00;63448.66;4960020;28;20353;-71
2021/10/26 05:18:53;;;;;;;64.63;35.93;;;;;;;-138.14;100.00;63448.66;4975214;28;20260;-70
2021/10/26 05:21:40;;;;;;;69.67;36.47;;;;;;;-138.14;100.00;63448.66;4960360;28;20737;-70
2021/10/26 05:24:25;;;;;;;64.40;36.70;;;;;;;-138.14;100.00;63448.66;4963291;28;20207;-71
2021/10/26 05:27:04;;;;;;;65.53;36.50;;;;;;;-138.14;100.00;63448.66;4984545;28;20221;-72
2021/10/26 05:29:32;;;;;;;65.20;35.30;;;;;;;-138.14;100.00;63448.66;4964656;28;20271;-72
2021/10/26 05:32:03;;;;;;;66.60;37.07;;;;;;;-138.14;100.00;63448.66;4980675;28;20221;-73
2021/10/26 05:34:29;;;;;;;63.50;36.13;;;;;;;-138.14;100.00;63448.66;4959532;28;20196;-71
2021/10/26 05:36:55;;;;;;;68.23;36.13;;;;;;;-138.14;100.00;63448.66;4967350;28;20213;-71
2021/10/26 05:39:21;;;;;;;61.93;35.63;;;;;;;-138.14;100.00;63448.66;4975996;28;20202;-70
2021/10/26 05:41:46;;;;;;;64.80;36.10;;;;;;;-138.14;100.00;63448.66;4982838;28;20275;-71
2021/10/26 05:44:12;;;;;;;61.23;35.77;;;;;;;-138.14;100.00;63448.66;4958903;28;20184;-71
2021/10/26 05:46:38;;;;;;;63.70;35.63;;;;;;;-138.14;100.00;63448.66;4959629;28;20221;-71
2021/10/26 05:49:07;;;;;;;60.53;36.23;;;;;;;-138.14;100.00;63448.66;4993087;28;20182;-71
2021/10/26 05:51:35;;;;;;;64.07;36.27;;;;;;;-138.14;100.00;63448.66;4992055;28;20236;-71
2021/10/26 05:54:03;;;;;;;63.00;35.70;;;;;;;-138.14;100.00;63448.66;4992817;28;20587;-71
2021/10/26 05:56:31;;;;;;;62.40;35.97;;;;;;;-138.14;100.00;63448.66;4993706;28;20698;-72
2021/10/26 05:58:57;;;;;;;58.77;35.70;;;;;;;-138.14;100.00;63448.66;4976144;28;20223;-72
2021/10/26 06:01:23;;;;;;;60.87;35.43;;;;;;;-138.14;100.00;63448.66;4978986;28;20224;-70
2021/10/26 06:03:51;;;;;;;63.57;36.17;;;;;;;-138.14;100.00;63448.66;4979169;28;20188;-70
2021/10/26 06:06:17;;;;;;;58.63;36.00;;;;;;;-138.14;100.00;63448.66;4959382;28;20312;-71
2021/10/26 06:08:44;;;;;;;57.83;35.47;;;;;;;-138.14;100.00;63448.66;4959675;28;20204;-70
2021/10/26 06:11:13;;;;;;;54.97;35.00;;;;;;;-138.14;100.00;63448.66;4965934;28;20229;-71
2021/10/26 06:13:45;;;;;;;53.17;33.77;;;;;;;-138.14;100.00;63448.66;4970293;28;20734;-71
2021/10/26 06:16:13;;;;;;;55.93;34.40;;;;;;;-138.14;100.00;63448.66;4976061;28;20234;-72
2021/10/26 06:18:42;;;;;;;53.07;33.23;;;;;;;-138.14;100.00;63448.66;4961530;28;20228;-71
2021/10/26 06:21:08;;;;;;;53.17;33.53;;;;;;;-138.14;100.00;63448.66;4967405;28;20225;-71
2021/10/26 06:23:36;;;;;;;49.90;32.07;;;;;;;-138.14;100.00;63448.66;4960025;28;20200;-71
2021/10/26 06:26:02;;;;;;;45.77;30.97;;;;;;;-138.14;100.00;63448.66;4966377;28;20647;-72
2021/10/26 06:28:55;;;;;;;47.33;31.70;;;;;;;-138.14;100.00;63448.66;4990420;28;20184;-72
2021/10/26 06:31:21;;;;;;;49.13;30.83;;;;;;;-138.14;100.00;63448.66;4994797;28;20224;-71
2021/10/26 06:33:50;;;;;;;47.40;30.10;;;;;;;-138.14;100.00;63448.66;4994953;28;20181;-71
2021/10/26 06:36:25;;;;;;;41.80;29.97;;;;;;;-138.14;100.00;63448.66;4989523;28;20220;-71
2021/10/26 06:38:53;;;;;;;41.13;29.07;;;;;;;-138.14;100.00;63448.66;4975683;28;20285;-71
2021/10/26 06:41:19;;;;;;;41.43;29.07;;;;;;;-138.14;100.00;63448.66;4950300;28;20255;-71
2021/10/26 06:44:12;;;;;;;39.80;28.23;;;;;;;-138.14;100.00;63448.66;4991926;28;20185;-71
2021/10/26 06:46:57;;;;;;;41.90;29.27;;;;;;;-138.14;100.00;63448.66;4991710;28;20236;-71
2021/10/26 06:49:54;;;;;;;37.63;28.37;;;;;;;-138.14;100.00;63448.66;4937927;28;20198;-71
2021/10/26 06:52:39;;;;;;;37.33;27.57;;;;;;;-138.14;100.00;63448.66;4991578;28;20216;-71
2021/10/26 06:55:23;;;;;;;37.93;27.83;;;;;;;-138.14;100.00;63448.66;4989162;28;20254;-72
2021/10/26 06:58:07;;;;;;;34.70;27.67;;;;;;;-138.14;100.00;63448.66;5004472;28;20347;-72
2021/10/26 07:01:09;;;;;;;36.47;27.67;;;;;;;-138.14;100.00;63448.66;4939146;29;20226;-71
2021/10/26 07:03:55;;;;;;;32.80;25.70;;;;;;;-138.14;100.00;63448.66;4979202;28;20246;-71
2021/10/26 07:06:39;;;;;;;38.40;27.23;;;;;;;-138.14;100.00;63448.66;4989760;28;20232;-71
2021/10/26 07:09:23;;;;;;;34.20;26.23;;;;;;;-138.14;100.00;63448.66;4969850;28;20259;-70
2021/10/26 07:11:54;;;;;;;32.07;25.43;;;;;;;-138.14;100.00;63448.66;4980629;28;20252;-70
2021/10/26 07:14:22;;;;;;;31.63;24.70;;;;;;;-138.14;100.00;63448.66;4958262;28;20244;-71
2021/10/26 07:16:47;;;;;;;32.67;26.17;;;;;;;-138.14;100.00;63448.66;4990324;28;20229;-69
2021/10/26 07:19:16;;;;;;;37.03;25.67;;;;;;;-138.14;100.00;63448.66;4975103;28;20236;-70
2021/10/26 07:22:02;;;;;;;31.03;24.40;;;;;;;-138.14;100.00;63448.66;4977201;28;20255;-71
2021/10/26 07:24:56;;;;;;;32.00;24.07;;;;;;;-138.14;100.00;63448.66;4990543;28;20204;-70
2021/10/26 07:27:27;;;;;;;29.73;24.13;;;;;;;-138.14;100.00;63448.66;4985443;28;20216;-71
2021/10/26 07:29:53;;;;;;;31.50;23.40;;;;;;;-138.14;100.00;63448.66;4978934;28;20263;-70
2021/10/26 07:32:20;;;;;;;30.93;24.80;;;;;;;-138.14;100.00;63448.66;4994000;28;20224;-71
2021/10/26 07:34:46;;;;;;;29.80;23.80;;;;;;;-138.14;100.00;63448.66;4977857;28;20181;-71
2021/10/26 07:37:16;;;;;;;28.10;23.97;;;;;;;-138.14;100.00;63448.66;4950856;28;20225;-70
2021/10/26 07:39:53;;;;;;;30.10;23.77;;;;;;;-138.14;100.00;63448.66;4974129;28;20216;-71
2021/10/26 07:42:24;;;;;;;31.60;24.10;;;;;;;-138.14;100.00;63448.66;4950683;28;20223;-71
2021/10/26 07:45:09;;;;;;;28.77;22.57;;;;;;;-138.14;100.00;63448.66;4989815;28;20205;-71
2021/10/26 07:47:41;;;;;;;29.07;22.20;;;;;;;-138.14;100.00;63448.66;4975092;28;20647;-70
2021/10/26 07:50:07;;;;;;;28.40;22.97;;;;;;;-138.14;100.00;63448.66;4990298;28;20181;-71
2021/10/26 07:52:36;;;;;;;26.13;22.43;;;;;;;-138.14;100.00;63448.66;4974635;28;20185;-71
2021/10/26 07:55:27;;;;;;;30.93;23.27;;;;;;;-138.14;100.00;63448.66;4935585;28;20225;-70
2021/10/26 07:57:59;;;;;;;30.30;23.20;;;;;;;-138.14;100.00;63448.66;4955407;28;20208;-70
2021/10/26 08:00:25;;;;;;;32.00;22.23;;;;;;;-138.14;100.00;63448.66;4977345;28;20183;-70
2021/10/26 08:03:01;;;;;;;29.30;23.00;;;;;;;-138.14;100.00;63448.66;4978489;28;20535;-71
2021/10/26 08:05:48;;;;;;;29.83;24.27;;;;;;;-138.14;100.00;63448.66;4995627;28;20736;-71
2021/10/26 08:08:15;;;;;;;32.67;25.07;;;;;;;-138.14;100.00;63448.66;4958632;28;20871;-69
2021/10/26 08:10:41;;;;;;;28.47;23.70;;;;;;;-138.14;100.00;63448.66;4960234;28;20221;-70
2021/10/26 08:13:07;;;;;;;29.97;24.03;;;;;;;-138.14;100.00;63448.66;4966245;28;20182;-71
2021/10/26 08:15:33;;;;;;;30.03;24.10;;;;;;;-138.14;100.00;63448.66;4989085;28;20589;-69
2021/10/26 08:17:59;;;;;;;29.33;23.60;;;;;;;-138.14;100.00;63448.66;4991536;28;20209;-70
2021/10/26 08:20:24;;;;;;;30.40;23.10;;;;;;;-138.14;100.00;63448.66;4989898;28;20188;-70
2021/10/26 08:22:52;;;;;;;29.90;23.93;;;;;;;-138.14;100.00;63448.66;4991849;28;20193;-71
2021/10/26 08:25:38;;;;;;;28.43;22.63;;;;;;;-138.14;100.00;63448.66;4991847;28;20193;-69
2021/10/26 08:28:09;;;;;;;29.93;22.67;;;;;;;-138.14;100.00;63448.66;4989138;28;20185;-70
2021/10/26 08:35:57;;;;;;;24.93;22.23;;;;;;;-138.14;100.00;63448.66;4977653;28;20229;-71
2021/10/26 08:38:23;;;;;;;24.30;21.70;;;;;;;-138.14;100.00;63448.66;4961694;28;20578;-72
2021/10/26 08:41:00;;;;;;;24.80;21.67;;;;;;;-138.14;100.00;63448.66;4948498;28;20217;-71
2021/10/26 08:43:26;;;;;;;26.97;21.50;;;;;;;-138.14;100.00;63448.66;4953516;28;20181;-70
2021/10/26 08:45:54;;;;;;;22.77;20.00;;;;;;;-138.14;100.00;63448.66;4976552;28;20252;-71
2021/10/26 08:48:23;;;;;;;22.23;19.93;;;;;;;-138.14;100.00;63448.66;4977602;28;20229;-71
2021/10/26 08:50:57;;;;;;;25.33;19.87;;;;;;;-138.14;100.00;63448.66;4977743;28;20237;-72
2021/10/26 08:53:30;;;;;;;26.13;19.47;;;;;;;-138.14;100.00;63448.66;4962530;28;20181;-70
2021/10/26 08:55:59;;;;;;;22.40;20.00;;;;;;;-138.14;100.00;63448.66;4991925;28;20294;-71
2021/10/26 08:58:31;;;;;;;22.37;19.77;;;;;;;-138.14;100.00;63448.66;5000515;28;20212;-70
2021/10/26 09:01:00;;;;;;;22.60;19.23;;;;;;;-138.14;100.00;63448.66;4996322;28;20233;-70
2021/10/26 09:03:34;;;;;;;22.83;18.97;;;;;;;-138.14;100.00;63448.66;4964345;28;20178;-70
2021/10/26 09:05:59;;;;;;;21.20;18.70;;;;;;;-138.14;100.00;63448.66;4960991;28;20606;-71
2021/10/26 09:08:26;;;;;;;23.10;19.47;;;;;;;-138.14;100.00;63448.66;4945060;28;20185;-70
2021/10/26 09:10:54;;;;;;;21.60;18.77;;;;;;;-138.14;100.00;63448.66;4980635;28;20275;-70
2021/10/26 09:16:57;;;;;;;21.70;18.73;;;;;;;-138.14;100.00;63448.66;4905221;28;20240;-70
2021/10/26 09:20:02;;;;;;;21.87;19.07;;;;;;;-138.14;100.00;63448.66;4923187;29;20440;-70
2021/10/26 09:22:58;;;;;;;21.93;17.93;;;;;;;-138.14;100.00;63448.66;4918452;29;20294;-70
2021/10/26 09:25:36;;;;;;;21.33;18.70;;;;;;;-138.14;100.00;63448.66;4956182;28;20224;-69
2021/10/26 09:28:12;;;;;;;21.60;19.27;;;;;;;-138.14;100.00;63448.66;4987947;28;20226;-72
2021/10/26 09:30:39;;;;;;;21.97;18.60;;;;;;;-138.14;100.00;63448.66;4979736;28;20216;-71
2021/10/26 09:33:08;;;;;;;19.33;17.30;;;;;;;-138.14;100.00;63448.66;4964355;28;20177;-70
2021/10/26 09:35:34;;;;;;;20.23;16.90;;;;;;;-138.14;100.00;63448.66;4996545;28;20286;-70
2021/10/26 09:38:00;;;;;;;19.50;17.07;;;;;;;-138.14;100.00;63448.66;4995813;28;20214;-71
2021/10/26 09:40:41;;;;;;;19.53;17.43;;;;;;;-138.14;100.00;63448.66;4977637;28;20266;-71
2021/10/26 09:43:06;;;;;;;18.10;16.27;;;;;;;-138.14;100.00;63448.66;4969694;28;20186;-71
2021/10/26 09:45:32;;;;;;;18.40;16.47;;;;;;;-138.14;100.00;63448.66;4976476;28;20221;-71
2021/10/26 09:48:05;;;;;;;17.57;15.77;;;;;;;-138.14;100.00;63448.66;4994891;28;20185;-70
2021/10/26 09:50:31;;;;;;;16.73;14.47;;;;;;;-138.14;100.00;63448.66;4993358;28;20671;-70
2021/10/26 09:53:15;;;;;;;19.23;15.13;;;;;;;-138.14;100.00;63448.66;4977941;28;20635;-72
2021/10/26 09:55:48;;;;;;;16.50;14.57;;;;;;;-138.14;100.00;63448.66;4964162;28;20228;-70
2021/10/26 09:58:20;;;;;;;18.93;14.20;;;;;;;-138.14;100.00;63448.66;4988447;28;20204;-70
2021/10/26 10:00:47;;;;;;;16.10;14.40;;;;;;;-138.14;100.00;63448.66;4980633;28;20225;-71
2021/10/26 10:03:16;;;;;;;20.83;14.23;;;;;;;-138.14;100.00;63448.66;4963768;28;20184;-70
2021/10/26 10:06:04;;;;;;;17.20;15.30;;;;;;;-138.14;100.00;63448.66;4978764;28;20228;-71
2021/10/26 10:08:34;;;;;;;16.47;14.57;;;;;;;-138.14;100.00;63448.66;4970154;28;20718;-71
2021/10/26 10:11:20;;;;;;;20.70;15.30;;;;;;;-138.14;100.00;63448.66;4993318;28;20221;-71
2021/10/26 10:13:54;;;;;;;16.23;13.70;;;;;;;-138.14;100.00;63448.66;4971446;28;20679;-70
2021/10/26 10:16:21;;;;;;;16.03;13.93;;;;;;;-138.14;100.00;63448.66;4976104;28;20228;-69
2021/10/26 10:18:50;;;;;;;15.27;13.43;;;;;;;-138.14;100.00;63448.66;4960786;28;20222;-70
2021/10/26 10:21:18;;;;;;;16.23;13.87;;;;;;;-138.14;100.00;63448.66;4991539;28;20229;-69
2021/10/26 10:23:44;;;;;;;16.47;13.13;;;;;;;-138.14;100.00;63448.66;4976478;28;20173;-69
2021/10/26 10:26:13;;;;;;;15.40;13.00;;;;;;;-138.14;100.00;63448.66;4960000;28;20236;-70
2021/10/26 10:28:44;;;;;;;16.33;13.23;;;;;;;-138.14;100.00;63448.66;4957924;28;20188;-70
2021/10/26 10:31:14;;;;;;;16.03;12.93;;;;;;;-138.14;100.00;63448.66;4964081;28;20220;-70
2021/10/26 10:33:42;;;;;;;16.40;13.03;;;;;;;-138.14;100.00;63448.66;5013083;28;20620;-70
2021/10/26 10:36:10;;;;;;;14.40;12.20;;;;;;;-138.14;100.00;63448.66;4975677;28;20229;-71
2021/10/26 10:38:36;;;;;;;12.40;10.73;;;;;;;-138.14;100.00;63448.66;4943847;28;20292;-71
2021/10/26 10:41:28;;;;;;;16.37;12.33;;;;;;;-138.14;100.00;63448.66;4942662;28;20228;-71
2021/10/26 10:44:01;;;;;;;13.80;10.90;;;;;;;-138.14;100.00;63448.66;4988231;28;20835;-69
2021/10/26 10:46:44;;;;;;;13.70;11.63;;;;;;;-138.14;100.00;63448.66;4958739;28;20638;-73
2021/10/26 10:49:24;;;;;;;14.80;11.57;;;;;;;-138.14;100.00;63448.66;4960285;28;20185;-69
2021/10/26 10:51:53;;;;;;;11.90;10.53;;;;;;;-138.14;100.00;63448.66;4974782;28;20713;-70
2021/10/26 10:54:35;;;;;;;15.80;11.40;;;;;;;-138.14;100.00;63448.66;4992535;28;20189;-69
2021/10/26 10:57:34;;;;;;;16.73;11.63;;;;;;;-138.14;100.00;63448.66;4985834;28;20275;-70
2021/10/26 11:00:16;;;;;;;13.80;10.70;;;;;;;-138.14;100.00;63448.66;4965258;28;20680;-70
2021/10/26 11:02:47;;;;;;;14.13;10.57;;;;;;;-138.14;100.00;63448.66;4994403;28;20228;-69
2021/10/26 11:05:38;;;;;;;12.33;10.87;;;;;;;-138.14;100.00;63448.66;4993610;28;20177;-70
2021/10/26 11:08:07;;;;;;;13.80;11.53;;;;;;;-138.14;100.00;63448.66;4994429;28;20194;-71
2021/10/26 11:10:51;;;;;;;11.80;10.60;;;;;;;-138.14;100.00;63448.66;4991548;28;20702;-72
2021/10/26 11:13:20;;;;;;;12.10;9.40;;;;;;;-138.14;100.00;63448.66;4983936;28;20185;-70
2021/10/26 11:15:46;;;;;;;11.47;9.63;;;;;;;-138.14;100.00;63448.66;4990266;28;20222;-71
2021/10/26 11:18:34;;;;;;;11.40;9.13;;;;;;;-138.14;100.00;63448.66;4991108;28;20220;-70
2021/10/26 11:21:03;;;;;;;9.10;8.20;;;;;;;-138.14;100.00;63448.66;4990953;28;20229;-71